createdAt,value
2023-04-01T00:01:47.330Z,22.30
2023-04-01T00:04:16.925Z,24.50
2023-04-01T00:06:45.680Z,25.20
2023-04-01T00:09:19.224Z,22.40
2023-04-01T00:11:49.052Z,22.70
2023-04-01T00:14:17.886Z,22.10
2023-04-01T00:16:47.898Z,24.50
2023-04-01T00:19:17.443Z,23.40
2023-04-01T00:21:49.013Z,22.60
2023-04-01T00:24:17.482Z,26.30
2023-04-01T00:26:45.680Z,23.40
2023-04-01T00:29:20.968Z,25.30
2023-04-01T00:31:50.337Z,24.70
2023-04-01T00:34:19.222Z,24.70
2023-04-01T00:36:47.826Z,24.40
2023-04-01T00:39:16.350Z,23.30
2023-04-01T00:41:48.060Z,24.00
2023-04-01T00:46:49.534Z,26.80
2023-04-01T00:49:19.499Z,26.00
2023-04-01T00:51:54.923Z,27.10
2023-04-01T00:54:24.603Z,28.10
2023-04-01T00:56:57.558Z,27.50
2023-04-01T00:59:29.676Z,25.40
2023-04-01T01:01:58.148Z,27.70
2023-04-01T01:04:29.442Z,27.60
2023-04-01T01:07:28.538Z,28.10
2023-04-01T01:10:21.957Z,26.00
2023-04-01T01:12:56.258Z,29.80
2023-04-01T01:15:32.145Z,28.10
2023-04-01T01:18:42.540Z,37.30
2023-04-01T01:21:41.474Z,40.50
2023-04-01T01:24:31.305Z,32.30
2023-04-01T01:27:12.945Z,32.00
2023-04-01T01:30:03.214Z,33.60
2023-04-01T01:32:58.231Z,28.90
2023-04-01T01:35:34.837Z,26.90
2023-04-01T01:40:36.072Z,33.50
2023-04-01T01:43:06.790Z,29.60
2023-04-01T01:45:44.401Z,27.00
2023-04-01T01:48:13.002Z,27.30
2023-04-01T01:50:47.721Z,28.60
2023-04-01T01:53:17.657Z,25.90
2023-04-01T01:55:49.632Z,23.70
2023-04-01T01:58:30.908Z,26.20
2023-04-01T02:01:02.364Z,32.00
2023-04-01T02:03:38.211Z,27.30
2023-04-01T02:06:18.541Z,26.40
2023-04-01T02:08:58.174Z,26.90
2023-04-01T02:11:39.432Z,28.40
2023-04-01T02:14:16.965Z,110.50
2023-04-01T02:17:01.539Z,46.30
2023-04-01T02:19:45.019Z,40.40
2023-04-01T02:22:16.741Z,46.50
2023-04-01T02:24:46.524Z,27.30
2023-04-01T02:27:14.890Z,30.10
2023-04-01T02:29:46.121Z,27.50
2023-04-01T02:32:21.276Z,31.40
2023-04-01T02:34:50.152Z,27.40
2023-04-01T02:37:20.250Z,24.20
2023-04-01T02:39:53.333Z,28.10
2023-04-01T02:42:21.772Z,26.20
2023-04-01T02:44:55.032Z,24.90
2023-04-01T02:47:23.858Z,25.10
2023-04-01T02:50:01.292Z,28.30
2023-04-01T02:52:30.924Z,34.80
2023-04-01T02:55:00.135Z,32.40
2023-04-01T02:57:30.309Z,29.40
2023-04-01T03:00:01.802Z,36.20
2023-04-01T03:02:33.030Z,28.00
2023-04-01T03:05:05.870Z,27.10
2023-04-01T03:07:37.605Z,32.30
2023-04-01T03:10:07.971Z,83.50
2023-04-01T03:12:36.978Z,177.30
2023-04-01T03:15:14.486Z,137.50
2023-04-01T03:17:48.285Z,290.40
2023-04-01T03:20:18.216Z,496.50
2023-04-01T03:22:48.941Z,309.20
2023-04-01T03:25:17.193Z,164.20
2023-04-01T03:27:46.638Z,67.60
2023-04-01T03:30:15.261Z,44.30
2023-04-01T03:32:48.856Z,40.40
2023-04-01T03:35:17.249Z,38.50
2023-04-01T03:37:47.654Z,40.60
2023-04-01T03:40:16.682Z,34.60
2023-04-01T03:42:45.466Z,28.80
2023-04-01T03:45:20.087Z,35.50
2023-04-01T03:50:16.980Z,105.70
2023-04-01T03:52:47.026Z,114.90
2023-04-01T03:55:16.742Z,65.00
2023-04-01T03:57:45.735Z,39.60
2023-04-01T04:00:18.572Z,55.00
2023-04-01T04:02:50.090Z,47.60
2023-04-01T04:05:21.812Z,23.60
2023-04-01T04:07:52.599Z,32.10
2023-04-01T04:10:21.318Z,28.20
2023-04-01T04:15:22.625Z,30.40
2023-04-01T04:17:53.624Z,41.40
2023-04-01T04:20:26.562Z,52.20
2023-04-01T04:22:55.197Z,43.40
2023-04-01T04:25:24.041Z,58.20
2023-04-01T04:27:52.511Z,69.40
2023-04-01T04:30:21.828Z,42.70
2023-04-01T04:32:51.466Z,34.60
2023-04-01T04:35:20.479Z,44.20
2023-04-01T04:37:55.673Z,26.70
2023-04-01T04:40:26.867Z,28.50
2023-04-01T04:42:55.621Z,33.60
2023-04-01T04:45:24.385Z,88.60
2023-04-01T04:47:56.621Z,25.20
2023-04-01T04:50:25.640Z,40.50
2023-04-01T04:52:54.321Z,50.70
2023-04-01T04:55:30.715Z,28.50
2023-04-01T04:58:23.205Z,40.50
2023-04-01T05:00:52.188Z,24.90
2023-04-01T05:03:26.861Z,21.50
2023-04-01T05:05:56.451Z,22.20
2023-04-01T05:08:25.098Z,27.40
2023-04-01T05:11:03.107Z,19.90
2023-04-01T05:13:32.260Z,21.50
2023-04-01T05:16:12.656Z,28.10
2023-04-01T05:18:42.259Z,44.20
2023-04-01T05:21:12.311Z,24.50
2023-04-01T05:23:42.604Z,25.20
2023-04-01T05:26:20.272Z,24.00
2023-04-01T05:28:49.699Z,26.40
2023-04-01T05:31:21.722Z,22.30
2023-04-01T05:33:52.416Z,25.40
2023-04-01T05:36:22.649Z,21.00
2023-04-01T05:38:52.527Z,21.70
2023-04-01T05:41:21.510Z,36.20
2023-04-01T05:43:50.507Z,24.90
2023-04-01T05:46:38.855Z,20.70
2023-04-01T05:49:13.986Z,29.80
2023-04-01T05:51:44.711Z,26.50
2023-04-01T05:54:14.269Z,74.80
2023-04-01T05:56:43.798Z,63.00
2023-04-01T05:59:12.724Z,32.80
2023-04-01T06:01:43.376Z,27.60
2023-04-01T06:04:17.860Z,20.80
2023-04-01T06:06:47.113Z,24.20
2023-04-01T06:09:19.639Z,20.90
2023-04-01T06:12:05.416Z,26.20
2023-04-01T06:14:41.530Z,24.70
2023-04-01T06:17:24.612Z,26.30
2023-04-01T06:20:25.393Z,24.50
2023-04-01T06:23:09.668Z,20.90
2023-04-01T06:25:56.678Z,21.00
2023-04-01T06:29:05.451Z,19.70
2023-04-01T06:31:43.431Z,20.00
2023-04-01T06:34:40.707Z,17.90
2023-04-01T06:37:33.646Z,27.40
2023-04-01T06:40:37.470Z,26.80
2023-04-01T06:43:38.166Z,23.10
2023-04-01T06:46:58.274Z,18.00
2023-04-01T06:50:02.494Z,21.20
2023-04-01T06:53:04.521Z,21.80
2023-04-01T06:56:11.493Z,21.90
2023-04-01T06:58:56.981Z,21.00
2023-04-01T07:01:50.295Z,18.90
2023-04-01T07:04:29.848Z,22.90
2023-04-01T07:07:47.364Z,22.70
2023-04-01T07:10:35.403Z,20.80
2023-04-01T07:13:42.150Z,23.30
2023-04-01T07:19:26.965Z,20.60
2023-04-01T07:22:21.736Z,22.80
2023-04-01T07:25:15.165Z,18.20
2023-04-01T07:27:49.002Z,18.70
2023-04-01T07:30:22.976Z,18.50
2023-04-01T07:33:10.576Z,17.40
2023-04-01T07:35:59.227Z,17.00
2023-04-01T07:38:45.634Z,18.20
2023-04-01T07:41:45.225Z,17.90
2023-04-01T07:44:24.156Z,20.50
2023-04-01T07:47:22.903Z,19.50
2023-04-01T07:50:20.154Z,19.50
2023-04-01T07:53:01.794Z,22.00
2023-04-01T07:56:00.895Z,20.10
2023-04-01T07:59:14.762Z,24.40
2023-04-01T08:02:18.436Z,29.10
2023-04-01T08:05:19.820Z,29.00
2023-04-01T08:08:28.806Z,34.60
2023-04-01T08:11:43.963Z,31.20
2023-04-01T08:14:54.038Z,35.30
2023-04-01T08:21:05.377Z,35.70
2023-04-01T08:23:46.086Z,37.20
2023-04-01T08:26:44.235Z,40.30
2023-04-01T08:29:27.193Z,42.20
2023-04-01T08:32:04.742Z,35.80
2023-04-01T08:34:43.948Z,37.50
2023-04-01T08:37:22.225Z,43.40
2023-04-01T08:39:59.044Z,37.60
2023-04-01T08:42:27.859Z,38.10
2023-04-01T08:45:19.783Z,32.90
2023-04-01T08:48:21.069Z,40.20
2023-04-01T08:51:09.312Z,41.90
2023-04-01T08:53:51.751Z,38.50
2023-04-01T08:56:29.388Z,35.80
2023-04-01T08:59:15.476Z,36.40
2023-04-01T09:02:29.257Z,37.00
2023-04-01T09:05:27.976Z,31.60
2023-04-01T09:08:12.789Z,30.50
2023-04-01T09:10:53.709Z,36.80
2023-04-01T09:14:04.928Z,36.40
2023-04-01T09:16:55.456Z,33.30
2023-04-01T09:19:23.878Z,34.00
2023-04-01T09:22:25.017Z,39.30
2023-04-01T09:25:23.271Z,32.80
2023-04-01T09:28:17.167Z,31.70
2023-04-01T09:30:45.877Z,27.40
2023-04-01T09:33:31.093Z,30.40
2023-04-01T09:36:09.649Z,28.90
2023-04-01T09:38:55.859Z,25.70
2023-04-01T09:41:38.288Z,24.60
2023-04-01T09:44:26.830Z,27.10
2023-04-01T09:47:46.082Z,22.00
2023-04-01T09:50:42.327Z,22.60
2023-04-01T09:58:46.917Z,17.90
2023-04-01T10:01:54.998Z,18.50
2023-04-01T10:04:25.893Z,16.60
2023-04-01T10:07:34.822Z,13.30
2023-04-01T10:10:20.037Z,12.80
2023-04-01T10:13:00.387Z,13.30
2023-04-01T10:15:53.548Z,10.40
2023-04-01T10:18:31.430Z,13.20
2023-04-01T10:21:26.332Z,12.20
2023-04-01T10:24:12.477Z,14.00
2023-04-01T10:27:00.918Z,11.70
2023-04-01T10:30:35.891Z,10.30
2023-04-01T10:33:46.760Z,9.80
2023-04-01T10:36:40.803Z,10.30
2023-04-01T10:39:37.587Z,9.90
2023-04-01T10:42:54.511Z,23.80
2023-04-01T10:46:03.772Z,10.80
2023-04-01T10:48:45.158Z,10.20
2023-04-01T10:51:46.269Z,14.00
2023-04-01T10:54:42.655Z,14.00
2023-04-01T10:57:53.109Z,13.30
2023-04-01T11:01:05.832Z,14.70
2023-04-01T11:04:24.664Z,14.80
2023-04-01T11:07:21.927Z,14.10
2023-04-01T11:10:02.126Z,12.90
2023-04-01T11:12:43.370Z,15.40
2023-04-01T11:15:21.407Z,15.60
2023-04-01T11:18:04.521Z,12.10
2023-04-01T11:20:47.252Z,11.20
2023-04-01T11:23:35.575Z,13.40
2023-04-01T11:26:10.000Z,12.30
2023-04-01T11:29:17.171Z,11.50
2023-04-01T11:32:07.742Z,12.90
2023-04-01T11:34:58.472Z,13.40
2023-04-01T11:37:46.302Z,11.80
2023-04-01T11:41:07.112Z,13.40
2023-04-01T11:44:00.825Z,14.40
2023-04-01T11:47:13.716Z,9.80
2023-04-01T11:50:01.754Z,11.00
2023-04-01T11:52:41.083Z,9.50
2023-04-01T11:55:17.958Z,8.50
2023-04-01T11:58:15.099Z,8.20
2023-04-01T12:00:53.579Z,10.40
2023-04-01T12:03:46.312Z,9.10
2023-04-01T12:06:36.692Z,9.50
2023-04-01T12:09:28.357Z,9.60
2023-04-01T12:12:21.508Z,9.30
2023-04-01T12:15:00.789Z,8.20
2023-04-01T12:17:56.413Z,8.70
2023-04-01T12:20:31.072Z,8.10
2023-04-01T12:23:12.142Z,6.70
2023-04-01T12:26:31.782Z,11.20
2023-04-01T12:29:10.826Z,6.60
2023-04-01T12:31:44.606Z,6.20
2023-04-01T12:34:29.804Z,6.90
2023-04-01T12:37:22.573Z,6.50
2023-04-01T12:40:10.525Z,8.90
2023-04-01T12:42:48.131Z,6.40
2023-04-01T12:48:20.368Z,9.00
2023-04-01T12:50:58.973Z,8.10
2023-04-01T12:54:09.452Z,8.60
2023-04-01T12:56:51.024Z,12.10
2023-04-01T12:59:31.449Z,8.70
2023-04-01T13:02:10.633Z,7.60
2023-04-01T13:05:07.004Z,10.80
2023-04-01T13:08:00.563Z,9.00
2023-04-01T13:10:51.824Z,8.40
2023-04-01T13:13:46.137Z,7.00
2023-04-01T13:16:33.494Z,7.10
2023-04-01T13:19:17.296Z,8.80
2023-04-01T13:22:03.412Z,17.00
2023-04-01T13:24:42.109Z,20.80
2023-04-01T13:27:24.920Z,29.30
2023-04-01T13:30:18.061Z,76.20
2023-04-01T13:32:56.111Z,66.50
2023-04-01T13:36:05.289Z,43.00
2023-04-01T13:38:47.169Z,39.50
2023-04-01T13:41:39.296Z,12.20
2023-04-01T13:44:16.030Z,9.50
2023-04-01T13:47:03.184Z,8.40
2023-04-01T13:50:02.941Z,31.90
2023-04-01T13:52:47.128Z,8.00
2023-04-01T13:55:27.651Z,8.90
2023-04-01T13:58:20.810Z,8.80
2023-04-01T14:01:21.403Z,12.10
2023-04-01T14:03:50.034Z,7.20
2023-04-01T14:06:27.792Z,10.50
2023-04-01T14:09:02.683Z,8.50
2023-04-01T14:11:59.317Z,8.90
2023-04-01T14:14:47.630Z,8.40
2023-04-01T14:17:49.555Z,8.40
2023-04-01T14:20:18.576Z,9.10
2023-04-01T14:23:06.618Z,8.20
2023-04-01T14:25:50.532Z,6.70
2023-04-01T14:28:47.996Z,8.70
2023-04-01T14:31:36.326Z,6.20
2023-04-01T14:34:07.390Z,5.50
2023-04-01T14:37:14.251Z,6.80
2023-04-01T14:39:55.359Z,8.60
2023-04-01T14:42:31.677Z,6.20
2023-04-01T14:45:21.430Z,7.40
2023-04-01T14:47:55.322Z,8.50
2023-04-01T14:50:45.726Z,6.90
2023-04-01T14:53:28.055Z,6.00
2023-04-01T14:55:58.824Z,6.80
2023-04-01T14:58:47.157Z,6.40
2023-04-01T15:01:33.011Z,8.20
2023-04-01T15:04:42.754Z,7.90
2023-04-01T15:07:54.900Z,6.60
2023-04-01T15:10:49.818Z,9.80
2023-04-01T15:13:25.862Z,6.00
2023-04-01T15:16:23.359Z,7.10
2023-04-01T15:19:03.348Z,7.60
2023-04-01T15:21:35.150Z,6.50
2023-04-01T15:24:34.654Z,10.00
2023-04-01T15:27:13.952Z,7.70
2023-04-01T15:30:03.219Z,7.60
2023-04-01T15:32:39.652Z,7.20
2023-04-01T15:35:34.972Z,12.50
2023-04-01T15:38:19.553Z,13.60
2023-04-01T15:41:01.728Z,8.00
2023-04-01T15:43:44.782Z,8.20
2023-04-01T15:46:19.158Z,6.20
2023-04-01T15:48:54.536Z,7.00
2023-04-01T15:51:29.346Z,8.30
2023-04-01T15:54:49.107Z,7.60
2023-04-01T15:57:46.935Z,7.00
2023-04-01T16:00:20.634Z,10.60
2023-04-01T16:02:54.554Z,9.40
2023-04-01T16:05:35.712Z,11.50
2023-04-01T16:08:26.202Z,9.50
2023-04-01T16:10:58.600Z,10.60
2023-04-01T16:16:08.958Z,11.30
2023-04-01T16:18:49.901Z,14.60
2023-04-01T16:21:27.852Z,9.40
2023-04-01T16:23:58.662Z,11.80
2023-04-01T16:26:34.981Z,9.40
2023-04-01T16:29:34.372Z,15.10
2023-04-01T16:32:33.381Z,13.50
2023-04-01T16:35:40.231Z,15.50
2023-04-01T16:38:33.688Z,14.60
2023-04-01T16:41:12.927Z,11.30
2023-04-01T16:43:55.723Z,19.00
2023-04-01T16:46:36.404Z,15.70
2023-04-01T16:49:33.107Z,17.00
2023-04-01T16:52:14.905Z,11.40
2023-04-01T16:54:54.816Z,14.00
2023-04-01T16:57:47.464Z,12.00
2023-04-01T17:00:26.695Z,11.60
2023-04-01T17:03:08.342Z,11.30
2023-04-01T17:05:51.610Z,12.80
2023-04-01T17:08:24.589Z,11.50
2023-04-01T17:11:09.709Z,12.40
2023-04-01T17:14:09.252Z,10.30
2023-04-01T17:16:48.473Z,12.10
2023-04-01T17:19:47.632Z,12.20
2023-04-01T17:22:46.998Z,10.00
2023-04-01T17:28:56.482Z,13.00
2023-04-01T17:31:31.379Z,14.40
2023-04-01T17:34:37.454Z,11.10
2023-04-01T17:37:19.624Z,13.20
2023-04-01T17:40:14.308Z,12.30
2023-04-01T17:42:51.954Z,10.20
2023-04-01T17:45:24.746Z,11.40
2023-04-01T17:48:12.426Z,12.70
2023-04-01T17:50:55.582Z,10.50
2023-04-01T17:53:41.366Z,10.80
2023-04-01T17:56:33.721Z,10.20
2023-04-01T17:59:12.140Z,9.40
2023-04-01T18:01:54.899Z,10.20
2023-04-01T18:04:49.091Z,11.60
2023-04-01T18:07:53.875Z,9.20
2023-04-01T18:10:35.124Z,16.20
2023-04-01T18:13:23.159Z,20.20
2023-04-01T18:16:11.688Z,17.50
2023-04-01T18:19:03.114Z,16.80
2023-04-01T18:22:07.072Z,15.00
2023-04-01T18:25:00.841Z,19.20
2023-04-01T18:27:43.073Z,16.60
2023-04-01T18:30:27.256Z,15.60
2023-04-01T18:33:10.637Z,13.90
2023-04-01T18:35:59.643Z,12.90
2023-04-01T18:38:47.182Z,11.00
2023-04-01T18:41:53.100Z,11.90
2023-04-01T18:44:43.567Z,12.50
2023-04-01T18:47:44.717Z,13.10
2023-04-01T18:50:21.936Z,13.10
2023-04-01T18:53:30.152Z,12.80
2023-04-01T18:56:03.066Z,11.80
2023-04-01T18:58:40.964Z,11.40
2023-04-01T19:01:13.864Z,12.30
2023-04-01T19:04:01.442Z,11.00
2023-04-01T19:06:34.934Z,12.90
2023-04-01T19:09:41.118Z,12.20
2023-04-01T19:12:30.481Z,14.30
2023-04-01T19:15:24.217Z,13.10
2023-04-01T19:18:10.406Z,16.90
2023-04-01T19:20:39.894Z,15.80
2023-04-01T19:23:08.433Z,17.20
2023-04-01T19:25:56.523Z,17.30
2023-04-01T19:28:44.506Z,15.00
2023-04-01T19:31:31.907Z,17.70
2023-04-01T19:34:31.240Z,18.20
2023-04-01T19:37:06.609Z,18.80
2023-04-01T19:39:48.047Z,15.50
2023-04-01T19:42:37.257Z,15.60
2023-04-01T19:45:08.893Z,15.50
2023-04-01T19:48:08.852Z,14.10
2023-04-01T19:50:41.692Z,13.50
2023-04-01T19:53:31.704Z,17.00
2023-04-01T19:56:39.471Z,14.80
2023-04-01T19:59:11.143Z,14.90
2023-04-01T20:02:12.160Z,14.90
2023-04-01T20:04:46.078Z,13.50
2023-04-01T20:07:22.633Z,15.70
2023-04-01T20:09:54.244Z,15.60
2023-04-01T20:12:41.789Z,15.60
2023-04-01T20:15:41.336Z,16.60
2023-04-01T20:18:17.897Z,15.90
2023-04-01T20:21:01.992Z,16.00
2023-04-01T20:23:34.121Z,14.70
2023-04-01T20:26:12.975Z,15.30
2023-04-01T20:28:46.172Z,15.30
2023-04-01T20:31:31.037Z,14.40
2023-04-01T20:34:24.097Z,15.10
2023-04-01T20:37:19.957Z,14.60
2023-04-01T20:40:03.574Z,16.20
2023-04-01T20:43:04.028Z,15.20
2023-04-01T20:45:43.512Z,13.70
2023-04-01T20:48:25.693Z,15.00
2023-04-01T20:50:59.587Z,15.50
2023-04-01T20:53:52.423Z,13.60
2023-04-01T20:57:07.889Z,14.40
2023-04-01T21:00:05.159Z,12.70
2023-04-01T21:02:54.328Z,14.40
2023-04-01T21:06:05.112Z,15.10
2023-04-01T21:08:58.583Z,16.30
2023-04-01T21:11:35.136Z,15.60
2023-04-01T21:14:07.628Z,14.40
2023-04-01T21:16:41.679Z,20.20
2023-04-01T21:19:20.738Z,20.60
2023-04-01T21:21:53.362Z,19.10
2023-04-01T21:27:21.147Z,17.50
2023-04-01T21:30:28.390Z,18.10
2023-04-01T21:33:33.632Z,18.70
2023-04-01T21:36:33.928Z,15.00
2023-04-01T21:39:28.714Z,16.00
2023-04-01T21:42:21.542Z,15.80
2023-04-01T21:45:05.126Z,23.40
2023-04-01T21:47:53.146Z,23.70
2023-04-01T21:50:46.771Z,19.80
2023-04-01T21:53:34.293Z,19.00
2023-04-01T21:56:28.116Z,19.00
2023-04-01T21:59:08.782Z,18.10
2023-04-01T22:01:54.465Z,15.30
2023-04-01T22:04:41.914Z,15.30
2023-04-01T22:07:20.107Z,18.10
2023-04-01T22:09:56.002Z,15.00
2023-04-01T22:12:30.800Z,15.00
2023-04-01T22:15:18.500Z,16.20
2023-04-01T22:17:59.100Z,14.60
2023-04-01T22:20:47.574Z,16.20
2023-04-01T22:23:52.274Z,16.00
2023-04-01T22:26:33.839Z,17.20
2023-04-01T22:29:22.536Z,18.60
2023-04-01T22:32:03.018Z,15.20
2023-04-01T22:34:40.471Z,15.40
2023-04-01T22:37:49.190Z,17.50
2023-04-01T22:40:28.941Z,19.00
2023-04-01T22:43:06.613Z,19.40
2023-04-01T22:45:44.471Z,24.70
2023-04-01T22:51:15.035Z,23.10
2023-04-01T22:54:29.650Z,24.10
2023-04-01T22:57:39.940Z,20.80
2023-04-01T23:00:14.144Z,18.60
2023-04-01T23:02:46.766Z,17.70
2023-04-01T23:05:18.393Z,15.90
2023-04-01T23:08:09.045Z,17.10
2023-04-01T23:10:44.188Z,15.20
2023-04-01T23:13:24.738Z,14.70
2023-04-01T23:15:53.178Z,15.50
2023-04-01T23:18:52.204Z,14.90
2023-04-01T23:21:33.896Z,15.40
2023-04-01T23:24:06.128Z,17.90
2023-04-01T23:26:54.014Z,14.50
2023-04-01T23:29:22.942Z,15.30
2023-04-01T23:32:07.653Z,12.30
2023-04-01T23:34:37.557Z,14.60
2023-04-01T23:37:10.145Z,13.70
2023-04-01T23:39:44.934Z,13.00
2023-04-01T23:42:20.909Z,14.60
2023-04-01T23:45:02.784Z,13.60
2023-04-01T23:47:36.143Z,15.70
2023-04-01T23:50:14.707Z,16.60
2023-04-01T23:52:47.324Z,21.20
2023-04-01T23:55:25.657Z,16.60
2023-04-01T23:58:18.349Z,14.90
